createdAt,value
2023-02-21T00:02:26.330Z,10.10
2023-02-21T00:05:47.742Z,12.70
2023-02-21T00:09:08.775Z,9.13
2023-02-21T00:12:29.650Z,10.48
2023-02-21T00:15:50.295Z,10.57
2023-02-21T00:19:11.273Z,13.07
2023-02-21T00:22:32.344Z,13.40
2023-02-21T00:25:53.628Z,14.13
2023-02-21T00:29:14.854Z,15.18
2023-02-21T00:32:35.921Z,9.40
2023-02-21T00:35:57.025Z,9.00
2023-02-21T00:39:18.077Z,12.05
2023-02-21T00:42:38.912Z,9.80
2023-02-21T00:46:00.259Z,4.93
2023-02-21T00:49:22.119Z,9.20
2023-02-21T00:52:43.250Z,12.25
2023-02-21T00:56:04.554Z,7.50
2023-02-21T00:59:25.449Z,11.88
2023-02-21T01:02:46.645Z,12.93
2023-02-21T01:06:07.610Z,9.35
2023-02-21T01:09:28.419Z,7.22
2023-02-21T01:12:49.532Z,11.93
2023-02-21T01:16:11.710Z,7.90
2023-02-21T01:19:34.640Z,9.90
2023-02-21T01:22:55.599Z,13.57
2023-02-21T01:26:16.532Z,14.15
2023-02-21T01:29:37.513Z,10.27
2023-02-21T01:32:58.600Z,16.08
2023-02-21T01:36:20.862Z,9.48
2023-02-21T01:39:42.079Z,11.70
2023-02-21T01:43:03.203Z,13.05
2023-02-21T01:46:24.838Z,10.02
2023-02-21T01:49:46.148Z,16.23
2023-02-21T01:53:08.195Z,16.23
2023-02-21T01:56:30.054Z,9.40
2023-02-21T01:59:51.199Z,16.52
2023-02-21T02:03:25.808Z,13.60
2023-02-21T02:06:46.896Z,11.73
2023-02-21T02:10:07.769Z,9.98
2023-02-21T02:13:34.586Z,13.82
2023-02-21T02:16:50.095Z,14.80
2023-02-21T02:20:17.524Z,16.05
2023-02-21T02:23:22.655Z,15.52
2023-02-21T02:26:56.098Z,18.48
2023-02-21T02:30:15.002Z,14.80
2023-02-21T02:33:45.329Z,17.98
2023-02-21T02:37:06.392Z,10.57
2023-02-21T02:40:21.544Z,11.07
2023-02-21T02:43:42.795Z,12.50
2023-02-21T02:46:46.579Z,15.02
2023-02-21T02:49:50.161Z,14.68
2023-02-21T02:52:57.252Z,12.35
2023-02-21T02:56:11.128Z,13.68
2023-02-21T02:59:21.317Z,15.15
2023-02-21T03:02:32.570Z,12.95
2023-02-21T03:06:14.006Z,17.35
2023-02-21T03:09:19.813Z,17.48
2023-02-21T03:12:25.007Z,15.98
2023-02-21T03:15:28.443Z,16.10
2023-02-21T03:18:39.501Z,14.27
2023-02-21T03:21:46.050Z,13.95
2023-02-21T03:24:49.635Z,16.55
2023-02-21T03:27:53.290Z,16.65
2023-02-21T03:31:00.627Z,18.60
2023-02-21T03:34:05.144Z,14.95
2023-02-21T03:37:09.060Z,13.32
2023-02-21T03:40:24.856Z,18.63
2023-02-21T03:43:28.003Z,16.60
2023-02-21T03:46:35.728Z,19.70
2023-02-21T03:49:38.215Z,16.77
2023-02-21T03:52:40.663Z,16.08
2023-02-21T03:55:43.456Z,26.00
2023-02-21T03:58:52.502Z,20.67
2023-02-21T04:01:55.086Z,20.95
2023-02-21T04:05:00.139Z,13.98
2023-02-21T04:08:03.275Z,22.05
2023-02-21T04:11:06.581Z,20.38
2023-02-21T04:14:10.993Z,16.75
2023-02-21T04:17:13.702Z,16.45
2023-02-21T04:20:16.434Z,18.17
2023-02-21T04:23:24.348Z,23.40
2023-02-21T04:26:30.178Z,15.35
2023-02-21T04:29:32.780Z,24.25
2023-02-21T04:32:35.223Z,21.58
2023-02-21T04:35:43.468Z,16.95
2023-02-21T04:38:54.994Z,20.00
2023-02-21T04:41:57.480Z,26.65
2023-02-21T04:45:00.749Z,19.58
2023-02-21T04:48:04.384Z,19.38
2023-02-21T04:51:15.135Z,30.60
2023-02-21T04:54:17.797Z,24.27
2023-02-21T04:57:20.427Z,22.52
2023-02-21T05:00:24.021Z,16.25
2023-02-21T05:03:26.361Z,17.88
2023-02-21T05:06:29.985Z,24.30
2023-02-21T05:09:32.507Z,15.85
2023-02-21T05:12:34.995Z,19.45
2023-02-21T05:15:37.365Z,15.00
2023-02-21T05:18:42.113Z,23.05
2023-02-21T05:21:44.458Z,26.55
2023-02-21T05:24:49.086Z,14.88
2023-02-21T05:27:53.146Z,13.63
2023-02-21T05:33:58.649Z,27.80
2023-02-21T05:37:01.048Z,16.50
2023-02-21T05:40:05.427Z,18.70
2023-02-21T05:43:07.873Z,20.10
2023-02-21T05:46:27.504Z,17.08
2023-02-21T05:49:30.054Z,11.43
2023-02-21T05:52:32.481Z,15.63
2023-02-21T05:55:34.885Z,15.80
2023-02-21T05:58:37.354Z,21.92
2023-02-21T06:01:40.191Z,22.30
2023-02-21T06:04:42.765Z,26.45
2023-02-21T06:07:45.749Z,22.13
2023-02-21T06:10:48.683Z,21.15
2023-02-21T06:13:52.580Z,27.17
2023-02-21T06:16:54.979Z,40.20
2023-02-21T06:19:57.572Z,20.08
2023-02-21T06:22:59.917Z,17.15
2023-02-21T06:26:02.350Z,18.77
2023-02-21T06:29:06.187Z,19.60
2023-02-21T06:32:08.715Z,18.80
2023-02-21T06:35:11.206Z,20.95
2023-02-21T06:38:13.504Z,17.33
2023-02-21T06:41:17.348Z,14.98
2023-02-21T06:44:20.726Z,17.27
2023-02-21T06:47:23.250Z,20.55
2023-02-21T06:50:25.545Z,23.65
2023-02-21T06:53:27.969Z,25.85
2023-02-21T06:56:30.881Z,20.52
2023-02-21T06:59:33.849Z,18.50
2023-02-21T07:02:36.276Z,20.17
2023-02-21T07:05:39.254Z,20.52
2023-02-21T07:08:41.713Z,20.83
2023-02-21T07:11:46.972Z,25.65
2023-02-21T07:14:49.439Z,23.17
2023-02-21T07:17:52.033Z,20.02
2023-02-21T07:20:54.695Z,22.98
2023-02-21T07:23:57.442Z,16.85
2023-02-21T07:27:00.591Z,14.68
2023-02-21T07:30:03.179Z,16.43
2023-02-21T07:33:06.398Z,17.65
2023-02-21T07:36:09.177Z,13.07
2023-02-21T07:39:11.510Z,22.52
2023-02-21T07:42:14.088Z,11.10
2023-02-21T07:45:21.180Z,19.63
2023-02-21T07:48:24.015Z,20.42
2023-02-21T07:51:30.093Z,15.23
2023-02-21T07:54:32.408Z,16.33
2023-02-21T07:57:34.795Z,17.58
2023-02-21T08:00:40.315Z,17.55
2023-02-21T08:03:43.046Z,20.50
2023-02-21T08:06:45.415Z,15.90
2023-02-21T08:09:48.272Z,18.42
2023-02-21T08:12:51.351Z,17.23
2023-02-21T08:15:54.507Z,19.48
2023-02-21T08:18:57.258Z,28.73
2023-02-21T08:21:59.989Z,24.42
2023-02-21T08:25:02.504Z,13.90
2023-02-21T08:28:04.916Z,20.30
2023-02-21T08:31:08.244Z,26.27
2023-02-21T08:34:11.602Z,15.27
2023-02-21T08:37:23.017Z,23.63
2023-02-21T08:40:25.590Z,23.20
2023-02-21T08:43:29.108Z,20.73
2023-02-21T08:46:31.481Z,19.73
2023-02-21T08:49:33.852Z,23.00
2023-02-21T08:52:36.378Z,20.00
2023-02-21T08:55:38.786Z,22.63
2023-02-21T08:58:41.181Z,21.67
2023-02-21T09:01:43.774Z,30.00
2023-02-21T09:04:46.807Z,16.30
2023-02-21T09:07:49.648Z,15.80
2023-02-21T09:10:52.805Z,15.05
2023-02-21T09:13:55.313Z,18.73
2023-02-21T09:16:57.704Z,18.75
2023-02-21T09:20:10.529Z,14.75
2023-02-21T09:23:15.558Z,21.77
2023-02-21T09:26:18.061Z,14.05
2023-02-21T09:29:23.043Z,19.92
2023-02-21T09:32:25.571Z,23.15
2023-02-21T09:35:31.099Z,21.27
2023-02-21T09:38:33.472Z,16.20
2023-02-21T09:41:36.862Z,20.23
2023-02-21T09:44:39.295Z,22.48
2023-02-21T09:47:42.179Z,20.02
2023-02-21T09:50:51.348Z,18.73
2023-02-21T09:53:56.652Z,20.75
2023-02-21T09:57:01.616Z,23.38
2023-02-21T10:00:12.429Z,20.45
2023-02-21T10:03:23.738Z,24.70
2023-02-21T10:06:46.384Z,19.77
2023-02-21T10:10:00.815Z,27.40
2023-02-21T10:13:06.214Z,19.48
2023-02-21T10:16:27.181Z,15.57
2023-02-21T10:19:36.566Z,24.25
2023-02-21T10:22:40.756Z,21.77
2023-02-21T10:25:47.340Z,21.23
2023-02-21T10:28:50.516Z,23.85
2023-02-21T10:31:59.338Z,17.48
2023-02-21T10:35:02.053Z,22.50
2023-02-21T10:38:08.401Z,18.65
2023-02-21T10:41:11.497Z,18.10
2023-02-21T10:44:27.196Z,28.73
2023-02-21T10:47:54.382Z,21.27
2023-02-21T10:51:07.636Z,21.80
2023-02-21T10:54:24.485Z,20.17
2023-02-21T10:57:27.333Z,25.50
2023-02-21T11:00:35.123Z,25.20
2023-02-21T11:03:47.365Z,22.63
2023-02-21T11:07:07.540Z,25.23
2023-02-21T11:10:30.400Z,25.60
2023-02-21T11:13:33.604Z,19.55
2023-02-21T11:16:36.686Z,21.07
2023-02-21T11:19:57.641Z,21.70
2023-02-21T11:23:00.426Z,29.13
2023-02-21T11:26:10.324Z,23.88
2023-02-21T11:29:16.282Z,31.73
2023-02-21T11:32:28.095Z,19.63
2023-02-21T11:35:51.805Z,20.77
2023-02-21T11:39:02.111Z,19.57
2023-02-21T11:42:07.100Z,29.13
2023-02-21T11:45:18.759Z,23.95
2023-02-21T11:48:29.978Z,19.60
2023-02-21T11:51:41.269Z,22.75
2023-02-21T11:54:44.501Z,24.15
2023-02-21T11:58:06.894Z,17.60
2023-02-21T12:01:14.194Z,17.15
2023-02-21T12:04:38.257Z,23.80
2023-02-21T12:07:52.949Z,21.00
2023-02-21T12:11:19.904Z,15.07
2023-02-21T12:14:46.535Z,19.10
2023-02-21T12:18:24.158Z,19.85
2023-02-21T12:21:57.390Z,22.83
2023-02-21T12:25:17.792Z,20.00
2023-02-21T12:28:39.684Z,36.22
2023-02-21T12:31:56.404Z,19.83
2023-02-21T12:35:34.002Z,18.20
2023-02-21T12:39:00.857Z,22.17
2023-02-21T12:42:06.201Z,19.00
2023-02-21T12:45:26.168Z,28.58
2023-02-21T12:48:38.920Z,16.95
2023-02-21T12:51:54.129Z,21.17
2023-02-21T12:55:04.568Z,20.05
2023-02-21T12:58:27.375Z,19.27
2023-02-21T13:01:35.133Z,20.48
2023-02-21T13:04:52.889Z,25.85
2023-02-21T13:08:01.124Z,19.20
2023-02-21T13:11:19.152Z,28.48
2023-02-21T13:14:27.407Z,21.00
2023-02-21T13:17:30.056Z,14.70
2023-02-21T13:20:41.808Z,18.58
2023-02-21T13:24:33.670Z,22.42
2023-02-21T13:27:55.885Z,22.35
2023-02-21T13:31:06.503Z,23.67
2023-02-21T13:34:12.737Z,19.70
2023-02-21T13:37:19.301Z,12.05
2023-02-21T13:40:40.090Z,15.85
2023-02-21T13:43:51.539Z,16.20
2023-02-21T13:46:54.860Z,19.08
2023-02-21T13:49:58.808Z,15.00
2023-02-21T13:53:13.040Z,18.20
2023-02-21T13:56:17.409Z,15.13
2023-02-21T13:59:28.493Z,20.63
2023-02-21T14:02:33.763Z,22.23
2023-02-21T14:05:45.456Z,20.80
2023-02-21T14:08:49.432Z,17.95
2023-02-21T14:11:54.886Z,20.90
2023-02-21T14:15:06.967Z,18.48
2023-02-21T14:18:50.626Z,18.17
2023-02-21T14:22:03.813Z,20.70
2023-02-21T14:25:16.275Z,16.75
2023-02-21T14:28:56.141Z,20.65
2023-02-21T14:32:17.798Z,18.08
2023-02-21T14:35:25.990Z,21.60
2023-02-21T14:38:30.976Z,18.17
2023-02-21T14:41:59.064Z,21.55
2023-02-21T14:45:10.323Z,22.38
2023-02-21T14:48:32.189Z,17.15
2023-02-21T14:51:55.557Z,24.35
2023-02-21T14:55:24.357Z,15.93
2023-02-21T14:58:44.770Z,17.55
2023-02-21T15:01:57.973Z,15.20
2023-02-21T15:05:18.261Z,17.38
2023-02-21T15:08:26.691Z,17.80
2023-02-21T15:11:36.648Z,23.40
2023-02-21T15:14:42.093Z,21.20
2023-02-21T15:17:44.652Z,22.90
2023-02-21T15:20:47.228Z,20.52
2023-02-21T15:24:02.039Z,21.83
2023-02-21T15:27:12.394Z,15.10
2023-02-21T15:30:19.107Z,18.73
2023-02-21T15:33:23.296Z,20.42
2023-02-21T15:39:33.032Z,16.90
2023-02-21T15:42:35.831Z,16.42
2023-02-21T15:45:47.056Z,22.35
2023-02-21T15:48:50.120Z,18.17
2023-02-21T15:51:52.389Z,20.00
2023-02-21T15:55:13.971Z,17.85
2023-02-21T15:58:26.968Z,19.45
2023-02-21T16:01:29.400Z,16.77
2023-02-21T16:04:37.426Z,27.17
2023-02-21T16:07:44.358Z,24.15
2023-02-21T16:10:47.067Z,19.70
2023-02-21T16:13:49.917Z,27.58
2023-02-21T16:17:05.563Z,24.33
2023-02-21T16:20:16.941Z,17.25
2023-02-21T16:23:27.104Z,15.75
2023-02-21T16:26:29.878Z,20.42
2023-02-21T16:29:32.421Z,18.48
2023-02-21T16:32:39.726Z,20.38
2023-02-21T16:35:43.219Z,19.13
2023-02-21T16:38:45.536Z,13.38
2023-02-21T16:41:47.916Z,18.42
2023-02-21T16:44:50.255Z,20.15
2023-02-21T16:48:15.303Z,13.77
2023-02-21T16:51:18.690Z,14.43
2023-02-21T16:54:20.987Z,15.03
2023-02-21T16:57:23.780Z,15.90
2023-02-21T17:00:26.222Z,19.45
2023-02-21T17:03:28.978Z,14.38
2023-02-21T17:06:31.687Z,12.02
2023-02-21T17:09:34.271Z,19.13
2023-02-21T17:12:36.710Z,16.90
2023-02-21T17:15:39.160Z,13.15
2023-02-21T17:18:41.636Z,14.45
2023-02-21T17:21:44.771Z,16.27
2023-02-21T17:24:47.113Z,19.25
2023-02-21T17:27:50.049Z,20.58
2023-02-21T17:30:52.413Z,17.80
2023-02-21T17:33:54.914Z,27.73
2023-02-21T17:36:57.237Z,21.58
2023-02-21T17:39:59.662Z,20.13
2023-02-21T17:43:03.467Z,20.48
2023-02-21T17:46:05.863Z,18.80
2023-02-21T17:49:08.267Z,21.27
2023-02-21T17:52:11.780Z,21.55
2023-02-21T17:55:25.616Z,14.55
2023-02-21T17:58:30.376Z,17.85
2023-02-21T18:01:32.883Z,14.73
2023-02-21T18:04:35.677Z,19.17
2023-02-21T18:07:38.221Z,23.20
2023-02-21T18:10:46.057Z,21.42
2023-02-21T18:13:48.802Z,22.98
2023-02-21T18:16:51.520Z,16.52
2023-02-21T18:19:54.483Z,18.25
2023-02-21T18:22:56.904Z,25.08
2023-02-21T18:26:01.518Z,20.13
2023-02-21T18:29:05.709Z,18.95
2023-02-21T18:35:10.620Z,26.70
2023-02-21T18:38:13.578Z,22.23
2023-02-21T18:41:20.604Z,21.10
2023-02-21T18:44:23.108Z,20.27
2023-02-21T18:47:26.719Z,21.60
2023-02-21T18:50:29.130Z,24.48
2023-02-21T18:53:31.644Z,22.05
2023-02-21T18:56:33.998Z,20.92
2023-02-21T18:59:37.173Z,24.35
2023-02-21T19:02:39.543Z,22.67
2023-02-21T19:05:41.964Z,23.17
2023-02-21T19:08:46.745Z,20.65
2023-02-21T19:11:49.295Z,26.20
2023-02-21T19:14:51.806Z,18.95
2023-02-21T19:17:54.247Z,22.77
2023-02-21T19:20:57.032Z,23.05
2023-02-21T19:23:59.753Z,17.25
2023-02-21T19:27:03.393Z,24.47
2023-02-21T19:30:07.932Z,24.53
2023-02-21T19:33:10.381Z,22.38
2023-02-21T19:36:13.227Z,25.00
2023-02-21T19:39:15.772Z,23.30
2023-02-21T19:42:18.061Z,23.75
2023-02-21T19:45:20.693Z,20.02
2023-02-21T19:48:23.200Z,25.35
2023-02-21T19:51:26.759Z,24.75
2023-02-21T19:54:30.939Z,15.82
2023-02-21T19:57:33.626Z,24.67
2023-02-21T20:00:38.695Z,20.65
2023-02-21T20:03:42.327Z,19.38
2023-02-21T20:06:44.813Z,17.30
2023-02-21T20:09:48.274Z,15.32
2023-02-21T20:12:50.613Z,12.27
2023-02-21T20:15:53.031Z,18.42
2023-02-21T20:18:57.661Z,17.63
2023-02-21T20:22:00.046Z,9.65
2023-02-21T20:25:02.534Z,15.68
2023-02-21T20:28:07.223Z,17.80
2023-02-21T20:31:11.081Z,13.88
2023-02-21T20:34:14.149Z,17.70
2023-02-21T20:37:17.770Z,15.65
2023-02-21T20:40:20.563Z,14.80
2023-02-21T20:43:22.950Z,13.38
2023-02-21T20:46:26.106Z,12.70
2023-02-21T20:49:28.448Z,14.13
2023-02-21T20:52:31.048Z,12.10
2023-02-21T20:55:35.860Z,10.95
2023-02-21T20:58:38.967Z,15.23
2023-02-21T21:01:48.133Z,11.87
2023-02-21T21:04:50.632Z,13.82
2023-02-21T21:07:55.776Z,12.60
2023-02-21T21:10:58.402Z,9.60
2023-02-21T21:14:00.859Z,14.07
2023-02-21T21:17:04.560Z,14.73
2023-02-21T21:20:14.543Z,12.25
2023-02-21T21:23:16.874Z,9.90
2023-02-21T21:26:19.295Z,10.35
2023-02-21T21:29:22.634Z,11.98
2023-02-21T21:32:25.565Z,8.90
2023-02-21T21:35:30.136Z,14.05
2023-02-21T21:38:32.491Z,18.23
2023-02-21T21:41:34.908Z,12.15
2023-02-21T21:44:39.778Z,13.82
2023-02-21T21:47:42.080Z,15.57
2023-02-21T21:50:44.437Z,8.88
2023-02-21T21:53:47.306Z,12.55
2023-02-21T21:56:49.673Z,6.68
2023-02-21T21:59:52.107Z,11.70
2023-02-21T22:02:57.574Z,11.57
2023-02-21T22:06:00.752Z,11.43
2023-02-21T22:09:03.748Z,13.03
2023-02-21T22:12:07.960Z,6.95
2023-02-21T22:15:10.715Z,12.43
2023-02-21T22:18:16.853Z,11.95
2023-02-21T22:21:22.427Z,7.80
2023-02-21T22:24:25.506Z,9.35
2023-02-21T22:27:28.480Z,12.67
2023-02-21T22:30:31.772Z,6.70
2023-02-21T22:33:34.548Z,8.93
2023-02-21T22:36:37.285Z,10.55
2023-02-21T22:39:42.399Z,8.45
2023-02-21T22:42:45.892Z,12.00
2023-02-21T22:45:50.267Z,7.35
2023-02-21T22:48:53.630Z,10.43
2023-02-21T22:51:57.960Z,8.57
2023-02-21T22:55:00.391Z,11.02
2023-02-21T22:58:03.174Z,10.48
2023-02-21T23:01:08.445Z,7.70
2023-02-21T23:04:10.971Z,9.40
2023-02-21T23:07:13.435Z,16.65
2023-02-21T23:10:18.062Z,14.50
2023-02-21T23:13:23.226Z,19.23
2023-02-21T23:16:25.638Z,12.50
2023-02-21T23:19:30.354Z,16.13
2023-02-21T23:22:32.680Z,8.73
2023-02-21T23:25:35.340Z,6.68
2023-02-21T23:28:37.873Z,4.90
2023-02-21T23:31:44.068Z,6.25
2023-02-21T23:34:50.570Z,4.53
2023-02-21T23:37:53.458Z,10.85
2023-02-21T23:40:58.027Z,8.00
2023-02-21T23:44:00.423Z,7.53
2023-02-21T23:47:06.062Z,6.78
2023-02-21T23:50:17.246Z,9.95
2023-02-21T23:53:22.757Z,6.82
2023-02-21T23:56:25.138Z,5.43
2023-02-21T23:59:27.870Z,5.55
